Time;durP1;ratioP1;P1;durP2;ratioP2;P2;SDS_P1;SDS_P2;PMS_P1;PMS_P2;Temp;Humidity;BMP_temperature;BMP_pressure;BME280_temperature;BME280_humidity;BME280_pressure;Samples;Min_cycle;Max_cycle;Signal;HPM_P1;HPM_P2
2023/12/11 00:01:52;;;;;;;1.33;1.33;;;16.90;67.70;;;;;;5055549;28;43475;-77
2023/12/11 00:04:20;;;;;;;1.53;1.30;;;16.90;67.80;;;;;;5070176;28;43884;-74
2023/12/11 00:06:48;;;;;;;1.00;1.00;;;16.90;67.90;;;;;;5062058;28;45835;-73
2023/12/11 00:09:16;;;;;;;1.20;1.20;;;16.90;68.00;;;;;;5059163;28;44596;-73
2023/12/11 00:11:44;;;;;;;1.30;1.30;;;16.90;67.80;;;;;;5069530;28;43444;-75
2023/12/11 00:14:14;;;;;;;1.13;1.13;;;17.00;67.50;;;;;;5069969;28;43490;-73
2023/12/11 00:16:43;;;;;;;1.23;1.23;;;17.10;67.20;;;;;;5069759;28;43903;-74
2023/12/11 00:19:12;;;;;;;1.20;1.20;;;17.10;67.00;;;;;;5060382;28;44722;-75
2023/12/11 00:21:41;;;;;;;1.00;1.00;;;17.10;67.10;;;;;;5069540;28;43455;-74
2023/12/11 00:24:09;;;;;;;1.50;1.40;;;17.10;67.30;;;;;;5063956;28;43447;-75
2023/12/11 00:26:37;;;;;;;1.20;1.20;;;17.10;67.40;;;;;;5069188;28;44826;-75
2023/12/11 00:29:05;;;;;;;1.20;1.20;;;17.00;67.10;;;;;;5062593;28;44674;-75
2023/12/11 00:31:35;;;;;;;1.10;1.10;;;17.00;68.00;;;;;;5061989;28;43461;-73
2023/12/11 00:34:03;;;;;;;1.30;1.30;;;17.00;67.40;;;;;;5056843;28;43391;-73
2023/12/11 00:36:31;;;;;;;1.30;1.30;;;16.90;67.40;;;;;;5047463;28;45944;-75
2023/12/11 00:38:59;;;;;;;1.00;1.00;;;16.90;67.70;;;;;;5047568;28;44491;-74
2023/12/11 00:41:27;;;;;;;1.20;1.20;;;16.90;67.70;;;;;;5047355;28;43448;-73
2023/12/11 00:43:55;;;;;;;1.27;1.27;;;16.90;68.30;;;;;;5048115;28;43519;-74
2023/12/11 00:46:24;;;;;;;1.33;1.33;;;16.90;67.70;;;;;;5048911;28;43620;-74
2023/12/11 00:48:53;;;;;;;1.10;1.10;;;16.90;67.70;;;;;;5048263;28;43408;-75
2023/12/11 00:51:22;;;;;;;1.10;1.10;;;16.90;67.80;;;;;;5048835;28;43499;-74
2023/12/11 00:53:50;;;;;;;1.10;1.10;;;16.80;68.50;;;;;;5049041;28;43422;-75
2023/12/11 00:56:18;;;;;;;1.10;1.10;;;16.80;68.00;;;;;;5048193;28;43714;-74
2023/12/11 00:58:46;;;;;;;1.30;1.30;;;16.90;67.90;;;;;;5048754;28;43606;-73
2023/12/11 01:01:14;;;;;;;1.07;1.07;;;17.00;67.70;;;;;;5048814;28;43383;-74
2023/12/11 01:03:42;;;;;;;1.07;1.07;;;17.00;67.40;;;;;;5049218;28;43347;-75
2023/12/11 01:06:12;;;;;;;1.00;1.00;;;17.00;67.40;;;;;;5048029;28;43847;-78
2023/12/11 01:08:40;;;;;;;1.10;1.10;;;17.00;67.50;;;;;;5047472;28;43432;-78
2023/12/11 01:11:09;;;;;;;0.90;0.90;;;16.90;67.70;;;;;;5048647;28;43587;-78
2023/12/11 01:13:37;;;;;;;1.00;1.00;;;17.00;67.60;;;;;;5048229;28;43427;-75
2023/12/11 01:16:06;;;;;;;0.90;0.90;;;16.90;67.50;;;;;;5048874;28;43867;-78
2023/12/11 01:18:34;;;;;;;0.80;0.80;;;16.90;67.60;;;;;;5048257;28;43481;-78
2023/12/11 01:21:03;;;;;;;1.03;1.03;;;16.90;67.70;;;;;;5048704;28;43315;-78
2023/12/11 01:23:33;;;;;;;1.20;1.20;;;16.90;67.70;;;;;;5048790;28;43665;-77
2023/12/11 01:26:01;;;;;;;1.10;1.10;;;16.90;67.90;;;;;;5043223;28;45884;-79
2023/12/11 01:28:29;;;;;;;0.90;0.90;;;16.90;68.00;;;;;;5046953;28;44783;-78
2023/12/11 01:30:57;;;;;;;1.00;1.00;;;16.90;67.80;;;;;;5048388;28;43390;-77
2023/12/11 01:33:26;;;;;;;0.90;0.90;;;16.90;67.80;;;;;;5047062;28;43574;-77
2023/12/11 01:35:54;;;;;;;1.20;1.20;;;16.90;67.80;;;;;;5058566;28;43938;-78
2023/12/11 01:38:22;;;;;;;1.10;1.10;;;16.80;67.80;;;;;;5060099;28;43356;-77
2023/12/11 01:40:51;;;;;;;1.00;1.00;;;16.80;67.90;;;;;;5062334;28;43479;-79
2023/12/11 01:43:20;;;;;;;1.07;1.07;;;16.80;68.10;;;;;;5059316;28;43845;-77
2023/12/11 01:45:53;;;;;;;1.00;1.00;;;16.90;68.00;;;;;;5058389;28;43694;-77
2023/12/11 01:48:21;;;;;;;0.90;0.90;;;17.00;67.70;;;;;;5061721;28;43329;-76
2023/12/11 01:50:49;;;;;;;1.00;1.00;;;17.10;67.30;;;;;;5057325;28;43451;-78
2023/12/11 01:53:17;;;;;;;0.90;0.90;;;17.10;67.00;;;;;;5059533;28;43446;-79
2023/12/11 01:55:45;;;;;;;1.00;1.00;;;17.10;67.00;;;;;;5064040;28;43640;-77
2023/12/11 01:58:15;;;;;;;0.90;0.90;;;17.10;67.20;;;;;;5062725;28;43704;-76
2023/12/11 02:00:43;;;;;;;1.00;1.00;;;17.10;67.40;;;;;;5059060;28;43446;-77
2023/12/11 02:03:11;;;;;;;1.20;1.20;;;17.10;67.20;;;;;;5061626;28;43524;-77
2023/12/11 02:05:40;;;;;;;0.80;0.80;;;17.00;67.20;;;;;;5058464;28;45970;-77
2023/12/11 02:08:09;;;;;;;0.80;0.80;;;17.00;67.30;;;;;;5062478;28;43394;-76
2023/12/11 02:10:37;;;;;;;0.90;0.90;;;17.00;67.50;;;;;;5064242;28;43403;-79
2023/12/11 02:13:05;;;;;;;0.90;0.90;;;16.90;67.60;;;;;;5061279;28;43423;-79
2023/12/11 02:15:42;;;;;;;0.73;0.73;;;16.90;67.80;;;;;;5063611;28;45811;-78
2023/12/11 02:18:10;;;;;;;0.70;0.70;;;16.90;67.70;;;;;;5061867;28;43910;-77
2023/12/11 02:20:39;;;;;;;0.90;0.90;;;16.90;67.70;;;;;;5063511;28;43277;-78
2023/12/11 02:23:09;;;;;;;0.97;0.97;;;16.90;67.70;;;;;;5058473;28;44106;-77
2023/12/11 02:25:39;;;;;;;0.83;0.83;;;16.90;67.80;;;;;;5069958;28;43595;-74
2023/12/11 02:28:09;;;;;;;1.00;1.00;;;16.90;67.90;;;;;;5074703;28;45420;-74
2023/12/11 02:30:37;;;;;;;1.00;1.00;;;16.80;67.90;;;;;;5068038;28;43398;-72
2023/12/11 02:33:05;;;;;;;0.93;0.93;;;16.90;68.00;;;;;;5064928;28;43411;-74
2023/12/11 02:35:34;;;;;;;1.00;1.00;;;17.00;67.90;;;;;;5072582;28;43600;-72
2023/12/11 02:38:02;;;;;;;0.90;0.90;;;17.00;67.40;;;;;;5082533;28;43359;-73
2023/12/11 02:40:30;;;;;;;0.90;0.90;;;17.10;67.20;;;;;;5075188;28;43420;-74
2023/12/11 02:43:02;;;;;;;1.00;1.00;;;17.10;67.30;;;;;;5082454;28;43532;-75
2023/12/11 02:45:32;;;;;;;0.77;0.77;;;17.00;67.30;;;;;;5081578;28;43686;-72
2023/12/11 02:48:02;;;;;;;1.00;1.00;;;17.00;67.60;;;;;;5081602;28;43363;-72
2023/12/11 02:50:31;;;;;;;0.93;0.93;;;17.00;67.40;;;;;;5071522;28;43428;-73
2023/12/11 02:52:59;;;;;;;0.93;0.93;;;17.00;67.40;;;;;;5082506;28;43476;-72
2023/12/11 02:55:27;;;;;;;0.87;0.87;;;16.90;67.40;;;;;;5076948;28;45985;-72
2023/12/11 02:57:57;;;;;;;1.00;1.00;;;16.90;67.60;;;;;;5082103;28;43435;-72
2023/12/11 03:00:25;;;;;;;0.80;0.80;;;16.90;67.70;;;;;;5068614;28;43558;-72
2023/12/11 03:02:54;;;;;;;0.90;0.90;;;16.90;67.90;;;;;;5082843;28;43752;-72
2023/12/11 03:05:23;;;;;;;0.90;0.90;;;16.90;67.90;;;;;;5082227;28;43600;-72
2023/12/11 03:07:51;;;;;;;0.97;0.97;;;16.90;67.80;;;;;;5081855;28;43449;-74
2023/12/11 03:10:19;;;;;;;0.90;0.90;;;16.90;67.80;;;;;;5079385;28;43383;-72
2023/12/11 03:12:47;;;;;;;0.97;0.97;;;16.90;67.90;;;;;;5081365;28;43427;-72
2023/12/11 03:15:15;;;;;;;0.90;0.90;;;16.80;67.90;;;;;;5068965;28;45538;-71
2023/12/11 03:17:43;;;;;;;0.90;0.90;;;16.80;67.90;;;;;;5080893;28;43426;-73
2023/12/11 03:20:13;;;;;;;0.80;0.80;;;16.80;68.10;;;;;;5081824;28;43395;-72
2023/12/11 03:22:41;;;;;;;0.90;0.90;;;16.90;68.00;;;;;;5081907;28;43351;-73
2023/12/11 03:25:09;;;;;;;0.90;0.90;;;17.00;67.70;;;;;;5081693;28;43612;-73
2023/12/11 03:27:37;;;;;;;1.10;1.10;;;17.00;67.30;;;;;;5072511;28;44491;-72
2023/12/11 03:30:07;;;;;;;0.70;0.70;;;17.00;67.20;;;;;;5080846;28;43467;-72
2023/12/11 03:32:35;;;;;;;0.70;0.70;;;17.00;67.30;;;;;;5075042;28;43461;-72
2023/12/11 03:35:04;;;;;;;0.80;0.80;;;17.00;67.60;;;;;;5077844;28;46276;-74
2023/12/11 03:37:34;;;;;;;0.93;0.93;;;17.00;67.70;;;;;;5065706;28;43368;-74
2023/12/11 03:40:03;;;;;;;0.73;0.73;;;17.00;67.50;;;;;;5070140;28;44116;-74
2023/12/11 03:42:31;;;;;;;1.07;1.07;;;17.00;67.60;;;;;;5064978;28;43451;-72
2023/12/11 03:45:00;;;;;;;0.80;0.80;;;16.90;67.70;;;;;;5070053;28;43768;-74
2023/12/11 03:47:28;;;;;;;0.90;0.90;;;16.90;67.80;;;;;;5070318;28;43434;-73
2023/12/11 03:49:56;;;;;;;1.03;1.03;;;16.90;68.00;;;;;;5069890;28;43447;-75
2023/12/11 03:52:24;;;;;;;1.00;1.00;;;16.80;67.90;;;;;;5063408;28;43564;-76
2023/12/11 03:54:54;;;;;;;0.50;0.50;;;16.80;67.80;;;;;;5066552;28;43918;-75
2023/12/11 03:57:22;;;;;;;0.97;0.97;;;16.90;67.90;;;;;;5062069;28;44711;-74
2023/12/11 03:59:50;;;;;;;1.00;1.00;;;16.80;67.90;;;;;;5059922;28;43337;-74
2023/12/11 04:02:18;;;;;;;0.90;0.90;;;16.80;67.90;;;;;;5070436;28;43398;-74
2023/12/11 04:04:46;;;;;;;1.00;1.00;;;16.80;68.00;;;;;;5069540;28;43631;-74
2023/12/11 04:07:15;;;;;;;0.80;0.80;;;16.80;68.20;;;;;;5064405;28;44354;-74
2023/12/11 04:09:43;;;;;;;1.10;1.10;;;16.90;68.00;;;;;;5069198;28;43447;-75
2023/12/11 04:12:12;;;;;;;0.87;0.87;;;17.00;67.70;;;;;;5063519;28;43484;-75
2023/12/11 04:14:41;;;;;;;0.80;0.80;;;17.10;67.40;;;;;;5062315;28;45716;-75
2023/12/11 04:17:09;;;;;;;0.90;0.90;;;17.10;67.30;;;;;;5069255;28;43509;-75
2023/12/11 04:19:37;;;;;;;1.00;1.00;;;17.10;67.40;;;;;;5069148;28;43387;-76
2023/12/11 04:22:05;;;;;;;1.13;1.13;;;17.00;67.50;;;;;;5069731;28;43466;-73
2023/12/11 04:24:33;;;;;;;0.80;0.80;;;17.00;67.50;;;;;;5069370;28;44621;-73
2023/12/11 04:27:01;;;;;;;0.70;0.70;;;17.00;67.40;;;;;;5060824;28;44325;-74
2023/12/11 04:29:31;;;;;;;0.73;0.73;;;17.00;67.60;;;;;;5069391;28;43358;-73
2023/12/11 04:31:59;;;;;;;0.80;0.80;;;16.90;67.60;;;;;;5060956;28;43494;-74
2023/12/11 04:34:27;;;;;;;0.70;0.70;;;16.90;67.70;;;;;;5069018;28;44107;-77
2023/12/11 04:36:55;;;;;;;0.70;0.70;;;16.90;67.80;;;;;;5069001;28;43427;-78
2023/12/11 04:39:24;;;;;;;0.80;0.80;;;16.90;68.00;;;;;;5069494;28;43537;-78
2023/12/11 04:41:52;;;;;;;0.87;0.87;;;16.90;67.80;;;;;;5069733;28;43477;-78
2023/12/11 04:44:20;;;;;;;0.77;0.77;;;16.90;67.80;;;;;;5069159;28;43888;-77
2023/12/11 04:46:49;;;;;;;0.73;0.73;;;16.80;67.80;;;;;;5069581;28;43480;-73
2023/12/11 04:49:17;;;;;;;0.83;0.83;;;16.80;67.90;;;;;;5063562;28;43365;-75
2023/12/11 04:51:46;;;;;;;0.80;0.80;;;16.80;67.90;;;;;;5069590;28;43387;-74
2023/12/11 04:54:17;;;;;;;0.80;0.80;;;16.80;68.10;;;;;;5068883;28;43892;-73
2023/12/11 04:56:45;;;;;;;0.70;0.70;;;16.90;68.10;;;;;;5076298;28;43427;-70
2023/12/11 04:59:13;;;;;;;0.90;0.90;;;16.90;67.70;;;;;;5072451;28;43437;-70
2023/12/11 05:01:41;;;;;;;0.70;0.70;;;17.00;67.40;;;;;;5078045;28;43914;-70
2023/12/11 05:04:11;;;;;;;0.80;0.80;;;17.00;67.40;;;;;;5078661;28;43855;-71
2023/12/11 05:06:39;;;;;;;0.87;0.70;;;17.00;67.50;;;;;;5076783;28;43482;-75
2023/12/11 05:09:07;;;;;;;0.80;0.80;;;17.00;67.70;;;;;;5077237;28;43457;-72
2023/12/11 05:11:35;;;;;;;0.90;0.90;;;16.90;67.70;;;;;;5076146;28;44024;-73
2023/12/11 05:14:05;;;;;;;0.90;0.90;;;17.00;67.60;;;;;;5075554;28;45384;-72
2023/12/11 05:16:33;;;;;;;0.77;0.77;;;17.00;67.70;;;;;;5071929;28;44429;-71
2023/12/11 05:19:04;;;;;;;0.80;0.80;;;16.90;67.70;;;;;;5082173;28;43511;-73
2023/12/11 05:21:34;;;;;;;0.70;0.70;;;16.90;67.80;;;;;;5077744;28;43482;-71
2023/12/11 05:24:02;;;;;;;0.77;0.77;;;16.90;67.90;;;;;;5077459;28;43818;-72
2023/12/11 05:26:30;;;;;;;0.90;0.90;;;16.90;68.10;;;;;;5071317;28;44779;-69
2023/12/11 05:29:00;;;;;;;0.80;0.80;;;16.90;67.90;;;;;;5073086;28;43363;-71
2023/12/11 05:31:28;;;;;;;1.00;1.00;;;16.90;67.90;;;;;;5073017;28;43491;-71
2023/12/11 05:33:56;;;;;;;0.90;0.90;;;16.90;67.90;;;;;;5071843;28;46439;-73
2023/12/11 05:36:25;;;;;;;0.60;0.60;;;16.90;68.00;;;;;;5080650;28;43434;-72
2023/12/11 05:38:54;;;;;;;0.80;0.80;;;16.90;68.00;;;;;;5076553;28;43794;-72
2023/12/11 05:41:22;;;;;;;0.90;0.90;;;16.80;68.10;;;;;;5072556;28;43444;-72
2023/12/11 05:43:50;;;;;;;0.67;0.67;;;16.90;68.30;;;;;;5074934;28;45622;-72
2023/12/11 05:46:18;;;;;;;0.80;0.80;;;16.90;68.00;;;;;;5072576;28;43427;-71
2023/12/11 05:48:47;;;;;;;0.60;0.60;;;17.00;67.60;;;;;;5082099;28;43383;-71
2023/12/11 05:51:15;;;;;;;0.93;0.93;;;17.10;68.00;;;;;;5075183;28;43345;-74
2023/12/11 05:53:44;;;;;;;0.80;0.80;;;17.20;67.00;;;;;;5072853;28;43976;-72
2023/12/11 05:56:13;;;;;;;1.43;0.80;;;17.10;67.10;;;;;;5073370;28;44107;-73
2023/12/11 05:58:41;;;;;;;1.10;0.97;;;17.10;67.50;;;;;;5068276;28;44055;-72
2023/12/11 06:01:09;;;;;;;0.80;0.80;;;17.10;67.30;;;;;;5079925;28;43385;-72
2023/12/11 06:03:38;;;;;;;0.70;0.70;;;17.10;67.40;;;;;;5062794;28;45459;-72
2023/12/11 06:06:07;;;;;;;0.80;0.80;;;17.10;67.50;;;;;;5064153;28;44685;-75
2023/12/11 06:08:35;;;;;;;1.00;1.00;;;17.00;67.60;;;;;;5067690;28;43493;-74
2023/12/11 06:11:04;;;;;;;0.80;0.80;;;17.00;67.70;;;;;;5060377;28;43859;-75
2023/12/11 06:13:34;;;;;;;0.80;0.80;;;16.90;67.90;;;;;;5062244;28;46322;-73
2023/12/11 06:16:02;;;;;;;0.60;0.60;;;16.90;67.70;;;;;;5067676;28;43426;-73
2023/12/11 06:18:31;;;;;;;0.73;0.73;;;16.90;67.70;;;;;;5061761;28;43412;-74
2023/12/11 06:20:59;;;;;;;0.73;0.73;;;16.90;67.80;;;;;;5067917;28;43416;-73
2023/12/11 06:23:31;;;;;;;0.87;0.87;;;16.90;67.90;;;;;;5067198;28;43996;-74
2023/12/11 06:25:59;;;;;;;1.00;1.00;;;16.90;68.00;;;;;;5067457;28;43445;-75
2023/12/11 06:28:27;;;;;;;1.00;1.00;;;16.80;68.10;;;;;;5067667;28;44020;-75
2023/12/11 06:30:57;;;;;;;0.83;0.83;;;16.90;68.10;;;;;;5067865;28;43457;-74
2023/12/11 06:33:25;;;;;;;0.80;0.80;;;16.90;68.00;;;;;;5067615;28;43604;-74
2023/12/11 06:35:53;;;;;;;1.00;1.00;;;16.90;68.00;;;;;;5067167;28;43430;-75
2023/12/11 06:38:21;;;;;;;0.60;0.60;;;16.90;68.00;;;;;;5058521;28;43427;-74
2023/12/11 06:40:49;;;;;;;0.60;0.60;;;16.90;68.10;;;;;;5065608;28;43487;-74
2023/12/11 06:43:17;;;;;;;0.60;0.60;;;16.80;68.80;;;;;;5057098;28;44109;-74
2023/12/11 06:45:47;;;;;;;1.07;1.00;;;16.80;68.20;;;;;;5059735;28;44778;-74
2023/12/11 06:48:17;;;;;;;0.80;0.80;;;16.90;68.10;;;;;;5067286;28;43414;-73
2023/12/11 06:50:45;;;;;;;0.67;0.67;;;17.00;67.80;;;;;;5067630;28;43447;-74
2023/12/11 06:53:13;;;;;;;0.80;0.80;;;17.10;67.50;;;;;;5067215;28;43611;-73
2023/12/11 06:55:42;;;;;;;0.97;0.70;;;17.10;67.30;;;;;;5066455;28;43502;-74
2023/12/11 06:58:10;;;;;;;0.97;0.80;;;17.10;67.30;;;;;;5067312;28;43892;-74
2023/12/11 07:00:38;;;;;;;0.90;0.87;;;17.10;67.50;;;;;;5055941;28;43618;-73
2023/12/11 07:03:07;;;;;;;0.70;0.70;;;17.00;67.60;;;;;;5050157;28;45788;-73
2023/12/11 07:05:36;;;;;;;0.80;0.80;;;17.00;67.50;;;;;;5066633;28;43429;-73
2023/12/11 07:08:05;;;;;;;0.70;0.70;;;17.00;67.50;;;;;;5066507;28;43824;-73
2023/12/11 07:10:33;;;;;;;0.80;0.80;;;17.00;67.60;;;;;;5053756;28;43484;-73
2023/12/11 07:13:06;;;;;;;0.70;0.70;;;17.00;67.70;;;;;;5067702;28;43841;-73
2023/12/11 07:15:34;;;;;;;1.00;1.00;;;16.90;67.80;;;;;;5074145;28;43397;-72
2023/12/11 07:18:02;;;;;;;0.77;0.77;;;16.90;68.00;;;;;;5079051;28;43411;-72
2023/12/11 07:20:33;;;;;;;0.80;0.80;;;17.00;68.00;;;;;;5064681;28;43432;-71
2023/12/11 07:23:02;;;;;;;0.93;0.70;;;17.00;67.70;;;;;;5077538;28;43937;-72
2023/12/11 07:25:30;;;;;;;0.80;0.80;;;17.00;67.50;;;;;;5077918;28;43504;-71
2023/12/11 07:27:58;;;;;;;0.70;0.70;;;17.00;67.40;;;;;;5076675;28;43455;-71
2023/12/11 07:30:27;;;;;;;0.80;0.80;;;17.00;67.60;;;;;;5077301;28;43404;-71
2023/12/11 07:32:55;;;;;;;0.90;0.90;;;17.00;67.70;;;;;;5077941;28;43754;-72
2023/12/11 07:35:24;;;;;;;0.90;0.90;;;17.00;67.80;;;;;;5056119;28;44998;-80
2023/12/11 07:37:53;;;;;;;0.90;0.90;;;17.00;67.70;;;;;;5051697;28;43881;-80
2023/12/11 07:40:22;;;;;;;0.80;0.80;;;17.00;67.80;;;;;;5070009;28;43438;-79
2023/12/11 07:42:51;;;;;;;0.70;0.70;;;17.00;67.80;;;;;;5069496;28;44307;-79
2023/12/11 07:45:20;;;;;;;0.80;0.80;;;16.90;67.80;;;;;;5056733;28;43503;-79
2023/12/11 07:47:48;;;;;;;0.80;0.80;;;16.90;68.00;;;;;;5054312;28;43924;-77
2023/12/11 07:50:16;;;;;;;0.67;0.67;;;16.90;68.10;;;;;;5070344;28;43470;-77
2023/12/11 07:52:44;;;;;;;0.73;0.73;;;16.90;68.00;;;;;;5055594;28;45903;-79
2023/12/11 07:55:12;;;;;;;0.80;0.80;;;16.90;67.90;;;;;;5068902;28;43456;-78
2023/12/11 07:57:42;;;;;;;0.80;0.80;;;16.90;68.30;;;;;;5054606;28;43409;-77
2023/12/11 08:00:12;;;;;;;0.80;0.80;;;16.90;68.00;;;;;;5054625;28;43629;-79
2023/12/11 08:02:40;;;;;;;0.90;0.90;;;16.90;68.10;;;;;;5069655;28;43889;-78
2023/12/11 08:05:09;;;;;;;1.00;1.00;;;16.90;68.30;;;;;;5069785;28;43376;-78
2023/12/11 08:07:38;;;;;;;0.93;0.93;;;16.90;68.30;;;;;;5068498;28;43406;-79
2023/12/11 08:10:07;;;;;;;0.73;0.73;;;17.00;68.00;;;;;;5054682;28;43412;-78
2023/12/11 08:12:36;;;;;;;0.90;0.90;;;17.10;67.70;;;;;;5052152;28;45747;-77
2023/12/11 08:15:06;;;;;;;0.80;0.80;;;17.20;67.40;;;;;;5051780;28;44826;-77
2023/12/11 08:17:34;;;;;;;0.70;0.70;;;17.10;67.20;;;;;;5068889;28;43348;-79
2023/12/11 08:20:05;;;;;;;0.90;0.90;;;17.10;67.30;;;;;;5069897;28;43474;-78
2023/12/11 08:22:36;;;;;;;0.90;0.90;;;17.10;67.60;;;;;;5069297;28;43620;-78
2023/12/11 08:25:06;;;;;;;0.97;0.97;;;17.10;67.50;;;;;;5069175;28;43471;-79
2023/12/11 08:27:34;;;;;;;0.90;0.90;;;17.10;67.50;;;;;;5069733;28;43981;-79
2023/12/11 08:30:03;;;;;;;0.80;0.80;;;17.00;67.50;;;;;;5069897;28;43380;-78
2023/12/11 08:32:32;;;;;;;0.90;0.90;;;17.00;67.70;;;;;;5069289;28;43603;-79
2023/12/11 08:35:03;;;;;;;1.00;1.00;;;17.00;67.80;;;;;;5068937;28;43758;-79
2023/12/11 08:37:32;;;;;;;0.70;0.70;;;17.00;68.10;;;;;;5064880;28;43525;-78
2023/12/11 08:40:02;;;;;;;0.70;0.70;;;16.90;67.90;;;;;;5069797;28;43386;-78
2023/12/11 08:42:31;;;;;;;0.90;0.90;;;17.00;67.90;;;;;;5063792;28;45952;-79
2023/12/11 08:45:02;;;;;;;0.70;0.70;;;17.00;68.00;;;;;;5071522;28;43980;-70
2023/12/11 08:47:31;;;;;;;0.90;0.90;;;16.90;68.00;;;;;;5078505;28;43457;-72
2023/12/11 08:50:08;;;;;;;0.80;0.80;;;16.90;68.00;;;;;;5067751;28;43598;-70
2023/12/11 08:52:37;;;;;;;0.87;0.87;;;16.90;68.20;;;;;;5077556;28;43851;-72
2023/12/11 08:55:06;;;;;;;0.93;0.93;;;16.90;68.30;;;;;;5076364;28;47381;-70
2023/12/11 08:57:35;;;;;;;1.00;1.00;;;17.00;68.10;;;;;;5078505;28;43419;-72
2023/12/11 09:00:05;;;;;;;0.90;0.90;;;17.00;67.70;;;;;;5069782;28;43447;-72
2023/12/11 09:02:34;;;;;;;0.90;0.90;;;17.10;67.60;;;;;;5077197;28;43600;-71
2023/12/11 09:05:03;;;;;;;1.00;1.00;;;17.00;67.60;;;;;;5077331;28;43371;-73
2023/12/11 09:07:32;;;;;;;1.00;1.00;;;17.00;67.70;;;;;;5077428;28;43391;-70
2023/12/11 09:10:01;;;;;;;1.10;1.10;;;17.00;68.00;;;;;;5078582;28;43624;-71
2023/12/11 09:12:29;;;;;;;1.00;1.00;;;17.00;67.80;;;;;;5078737;28;43861;-72
2023/12/11 09:15:01;;;;;;;0.93;0.93;;;17.00;67.80;;;;;;5070694;28;44315;-72
2023/12/11 09:17:29;;;;;;;0.93;0.93;;;17.00;67.90;;;;;;5078857;28;43447;-72
2023/12/11 09:20:02;;;;;;;1.10;1.10;;;17.00;68.00;;;;;;5066603;28;43460;-72
2023/12/11 09:22:30;;;;;;;1.40;1.30;;;17.00;68.80;;;;;;5078193;28;43839;-72
2023/12/11 09:24:59;;;;;;;0.90;0.90;;;16.90;68.10;;;;;;5077849;28;43441;-71
2023/12/11 09:27:27;;;;;;;1.03;1.03;;;16.90;68.20;;;;;;5078046;28;43380;-71
2023/12/11 09:29:55;;;;;;;1.00;1.00;;;17.00;68.00;;;;;;5077864;28;44003;-71
2023/12/11 09:32:23;;;;;;;0.90;0.90;;;17.10;67.80;;;;;;5077665;28;43880;-71
2023/12/11 09:34:52;;;;;;;0.93;0.93;;;17.10;67.60;;;;;;5075748;28;43492;-79
2023/12/11 09:37:22;;;;;;;1.13;1.13;;;17.10;67.60;;;;;;5068637;28;43412;-79
2023/12/11 09:39:50;;;;;;;1.20;1.20;;;17.00;67.70;;;;;;5068487;28;43990;-78
2023/12/11 09:42:19;;;;;;;1.10;1.10;;;17.00;67.90;;;;;;5060408;28;45381;-78
2023/12/11 09:44:48;;;;;;;1.10;1.10;;;17.00;67.80;;;;;;5068085;28;43468;-78
2023/12/11 09:47:17;;;;;;;1.10;1.10;;;17.00;67.80;;;;;;5068341;28;43389;-78
2023/12/11 09:49:45;;;;;;;1.00;1.00;;;17.00;67.80;;;;;;5068393;28;43455;-79
2023/12/11 09:52:14;;;;;;;1.20;1.20;;;17.00;67.90;;;;;;5050497;28;45292;-78
2023/12/11 09:54:44;;;;;;;1.40;1.30;;;17.00;68.00;;;;;;5060806;28;44551;-74
2023/12/11 09:57:12;;;;;;;1.20;1.10;;;16.90;68.00;;;;;;5067865;28;43416;-74
2023/12/11 09:59:40;;;;;;;1.40;1.30;;;16.90;68.10;;;;;;5058288;28;43548;-74
2023/12/11 10:02:11;;;;;;;1.10;1.10;;;17.00;67.90;;;;;;5067807;28;43606;-75
2023/12/11 10:04:39;;;;;;;1.30;1.30;;;17.10;67.50;;;;;;5062912;28;44447;-74
2023/12/11 10:07:07;;;;;;;1.23;1.13;;;17.20;67.30;;;;;;5068097;28;43431;-75
2023/12/11 10:09:35;;;;;;;1.20;1.20;;;17.20;67.30;;;;;;5067678;28;43541;-75
2023/12/11 10:12:06;;;;;;;1.20;1.20;;;17.10;67.30;;;;;;5061517;28;45353;-75
2023/12/11 10:14:37;;;;;;;1.27;1.20;;;17.10;67.60;;;;;;5059327;28;44662;-74
2023/12/11 10:17:16;;;;;;;1.53;1.43;;;17.10;67.50;;;;;;5067963;28;43452;-74
2023/12/11 10:19:45;;;;;;;1.47;1.37;;;17.10;67.50;;;;;;5065492;28;44023;-74
2023/12/11 10:22:25;;;;;;;1.13;1.13;;;17.10;67.60;;;;;;5067625;28;43689;-74
2023/12/11 10:24:53;;;;;;;1.10;1.10;;;17.00;67.70;;;;;;5066630;28;43427;-74
2023/12/11 10:27:24;;;;;;;1.20;1.20;;;17.00;67.80;;;;;;5068159;28;43605;-73
2023/12/11 10:30:07;;;;;;;1.30;1.30;;;17.00;68.00;;;;;;5058959;28;43405;-75
2023/12/11 10:32:35;;;;;;;1.23;1.23;;;17.00;67.90;;;;;;5053468;28;45696;-74
2023/12/11 10:35:05;;;;;;;1.40;1.30;;;17.00;67.90;;;;;;5067081;28;43423;-75
2023/12/11 10:37:34;;;;;;;1.27;1.27;;;17.00;68.00;;;;;;5067499;28;43406;-73
2023/12/11 10:40:03;;;;;;;1.00;1.00;;;17.00;68.00;;;;;;5075211;28;43456;-73
2023/12/11 10:42:34;;;;;;;1.30;1.30;;;16.90;68.00;;;;;;5070653;28;43619;-74
2023/12/11 10:45:02;;;;;;;1.60;1.60;;;16.90;68.10;;;;;;5062059;28;44803;-74
2023/12/11 10:47:30;;;;;;;2.03;1.83;;;16.90;68.20;;;;;;5062999;28;43456;-74
2023/12/11 10:50:02;;;;;;;1.40;1.40;;;17.00;68.00;;;;;;5071534;28;43334;-74
2023/12/11 10:52:31;;;;;;;1.53;1.50;;;17.10;67.60;;;;;;5070875;28;43709;-73
2023/12/11 10:55:00;;;;;;;1.43;1.33;;;17.20;67.40;;;;;;5070386;28;44055;-74
2023/12/11 10:57:28;;;;;;;1.27;1.27;;;17.20;67.30;;;;;;5070895;28;43703;-74
2023/12/11 10:59:58;;;;;;;1.53;1.53;;;17.10;67.40;;;;;;5071027;28;43590;-74
2023/12/11 11:02:26;;;;;;;1.40;1.30;;;17.10;67.70;;;;;;5066783;28;45451;-74
2023/12/11 11:04:54;;;;;;;1.53;1.53;;;17.10;67.60;;;;;;5060421;28;43535;-74
2023/12/11 11:07:26;;;;;;;1.30;1.30;;;17.10;67.50;;;;;;5070336;28;43443;-74
2023/12/11 11:10:00;;;;;;;1.30;1.30;;;17.10;67.70;;;;;;5071004;28;43428;-74
2023/12/11 11:12:35;;;;;;;1.50;1.50;;;17.10;67.80;;;;;;5065108;28;45692;-73
2023/12/11 11:15:09;;;;;;;1.47;1.47;;;17.00;67.80;;;;;;5070328;28;43945;-75
2023/12/11 11:17:59;;;;;;;1.63;1.53;;;17.00;68.00;;;;;;5070767;28;43868;-72
2023/12/11 11:20:28;;;;;;;2.10;1.70;;;17.00;67.90;;;;;;5067235;28;43505;-73
2023/12/11 11:23:21;;;;;;;1.23;1.23;;;17.00;67.90;;;;;;5058382;28;45701;-72
2023/12/11 11:25:52;;;;;;;1.43;1.43;;;17.00;68.00;;;;;;5070389;28;43354;-72
2023/12/11 11:28:37;;;;;;;1.40;1.30;;;17.00;68.00;;;;;;5070395;28;44554;-72
2023/12/11 11:31:06;;;;;;;2.00;1.90;;;17.00;68.10;;;;;;5070813;28;43446;-74
2023/12/11 11:33:51;;;;;;;1.53;1.43;;;16.90;68.10;;;;;;5069727;28;43959;-72
2023/12/11 11:36:21;;;;;;;1.40;1.30;;;17.00;68.00;;;;;;5070399;28;43886;-74
2023/12/11 11:38:56;;;;;;;1.60;1.60;;;17.00;68.00;;;;;;5070272;28;44000;-73
2023/12/11 11:41:25;;;;;;;1.30;1.30;;;17.00;68.10;;;;;;5057391;28;43577;-73
2023/12/11 11:43:58;;;;;;;1.37;1.37;;;17.00;68.10;;;;;;5064384;28;43814;-73
2023/12/11 11:46:28;;;;;;;1.87;1.77;;;17.00;68.20;;;;;;5069941;28;43541;-73
2023/12/11 11:48:56;;;;;;;1.40;1.40;;;16.90;68.20;;;;;;5070367;28;43949;-73
2023/12/11 11:51:24;;;;;;;1.63;1.57;;;17.00;68.30;;;;;;5070118;28;44008;-73
2023/12/11 11:53:55;;;;;;;1.90;1.80;;;17.00;68.00;;;;;;5069098;28;43609;-72
2023/12/11 11:56:23;;;;;;;1.50;1.40;;;17.20;67.80;;;;;;5069474;28;45079;-71
2023/12/11 11:59:02;;;;;;;1.77;1.67;;;17.20;67.30;;;;;;5071578;28;43352;-71
2023/12/11 12:01:34;;;;;;;1.90;1.80;;;17.30;67.10;;;;;;5080857;28;43479;-71
2023/12/11 12:04:03;;;;;;;1.90;1.80;;;17.20;67.10;;;;;;5080368;28;43571;-71
2023/12/11 12:06:31;;;;;;;1.90;1.80;;;17.20;67.40;;;;;;5063728;28;44730;-72
2023/12/11 12:08:59;;;;;;;2.27;1.93;;;17.20;67.20;;;;;;5080663;28;43463;-72
2023/12/11 12:11:29;;;;;;;1.83;1.70;;;17.20;67.30;;;;;;5075629;28;43534;-73
2023/12/11 12:13:57;;;;;;;2.40;2.00;;;17.20;67.40;;;;;;5078558;28;43830;-72
2023/12/11 12:16:29;;;;;;;1.70;1.60;;;17.20;67.60;;;;;;5077562;28;43414;-72
2023/12/11 12:18:58;;;;;;;2.97;2.23;;;17.10;67.70;;;;;;5064908;28;43446;-74
2023/12/11 12:21:27;;;;;;;3.70;2.20;;;17.10;67.90;;;;;;5066325;28;43487;-72
2023/12/11 12:24:03;;;;;;;2.40;2.20;;;17.10;67.90;;;;;;5079994;28;43703;-73
2023/12/11 12:26:31;;;;;;;2.40;2.20;;;17.00;67.70;;;;;;5074668;28;43339;-72
2023/12/11 12:28:59;;;;;;;2.80;2.40;;;17.10;67.90;;;;;;5079506;28;43468;-71
2023/12/11 12:31:27;;;;;;;2.10;1.90;;;17.00;67.90;;;;;;5073830;28;43922;-72
2023/12/11 12:33:55;;;;;;;2.40;2.20;;;17.00;68.00;;;;;;5075639;28;44195;-72
2023/12/11 12:36:25;;;;;;;2.40;2.13;;;17.00;68.00;;;;;;5075005;28;43411;-71
2023/12/11 12:38:53;;;;;;;2.73;2.47;;;17.00;68.20;;;;;;5061587;28;43475;-72
2023/12/11 12:41:22;;;;;;;3.17;2.43;;;17.00;68.00;;;;;;5078890;28;43531;-72
2023/12/11 12:43:50;;;;;;;2.90;2.60;;;17.10;67.70;;;;;;5069628;28;46195;-73
2023/12/11 12:46:18;;;;;;;2.40;2.20;;;17.20;67.60;;;;;;5073188;28;44363;-74
2023/12/11 12:48:46;;;;;;;3.40;2.30;;;17.10;67.50;;;;;;5078378;28;43464;-71
2023/12/11 12:51:14;;;;;;;2.43;2.23;;;17.10;67.60;;;;;;5077606;28;43478;-72
2023/12/11 12:53:50;;;;;;;2.20;2.10;;;17.10;67.80;;;;;;5078451;28;43752;-73
2023/12/11 12:56:19;;;;;;;2.57;2.37;;;17.10;67.90;;;;;;5073446;28;44341;-71
2023/12/11 12:58:47;;;;;;;2.57;2.23;;;17.00;67.90;;;;;;5075751;28;43518;-72